Terminal Aerodrome Forecast
Issued by NWS St Louis, MO

Home | Current Version | Previous Version | Text Only | Print | Product List | Glossary On
Versions: 1 2 3 4 5 6 7 8 9 10 11 12 13 14 15 16 17 18 19 20 21 22 23 24 25 26 27 28 29 30 31 32 33 34 35 36 37
000
FTUS43 KLSX 241400 AAA
TAFSTL
TAF AMD
KSTL 241454Z 2415/2518 16012G18KT P6SM OVC150
     FM241700 16015G25KT P6SM SCT030 BKN060
     FM250000 17014G25KT 6SM -SHRA VCTS BKN040CB
     FM250600 15014KT P6SM SCT010 BKN020=

USA.gov is the U.S. government's official web portal to all federal, state and local government web resources and services.